<?xml version="1.0" encoding="UTF-8" standalone="no" ?>
<gpx xmlns="http://www.topografix.com/GPX/1/1" xmlns:xsi="http://www.w3.org/2001/XMLSchema-instance" xsi:schemaLocation="http://www.topografix.com/GPX/1/1 http://www.topografix.com/GPX/1/1/gpx.xsd" version="1.1" creator="VisuGPX - https://www.visugpx.com">
  <metadata>
    <name>rof 55 2018</name>
    <desc><![CDATA[
]]></desc>
  </metadata>
  <wpt lat="48.93542" lon="7.8834">
    <ele>146.5</ele>
    <name><![CDATA[rof 55 2018]]></name>
    <type><![CDATA[Generic]]></type>
  </wpt>
  <wpt lat="48.97857" lon="7.82702">
    <ele>482.6</ele>
    <name><![CDATA[RAVITO]]></name>
    <type><![CDATA[picnic]]></type>
  </wpt>
  <wpt lat="48.95691" lon="7.76641">
    <ele>281.8</ele>
    <name><![CDATA[RAVITO]]></name>
    <type><![CDATA[picnic]]></type>
  </wpt>
  <wpt lat="48.9783" lon="7.826">
    <ele>467.9</ele>
    <name><![CDATA[RAVITO]]></name>
    <type><![CDATA[picnic]]></type>
  </wpt>
  <trk>
    <name><![CDATA[rof 55 2018]]></name>
    <trkseg>
      <trkpt lat="48.93572" lon="7.88404">
        <ele>150</ele>
        <time>2020-03-08T21:57:48Z</time>
      </trkpt>
      <trkpt lat="48.93652" lon="7.88412">
        <ele>149</ele>
        <time>2020-03-08T21:57:38Z</time>
      </trkpt>
      <trkpt lat="48.93736" lon="7.8842">
        <ele>149</ele>
        <time>2020-03-08T21:57:26Z</time>
      </trkpt>
      <trkpt lat="48.93819" lon="7.88428">
        <ele>149</ele>
        <time>2020-03-08T21:57:14Z</time>
      </trkpt>
      <trkpt lat="48.93898" lon="7.88427">
        <ele>152</ele>
        <time>2020-03-08T21:56:54Z</time>
      </trkpt>
      <trkpt lat="48.93931" lon="7.8831">
        <ele>151</ele>
        <time>2020-03-08T21:56:38Z</time>
      </trkpt>
      <trkpt lat="48.93969" lon="7.88199">
        <ele>150</ele>
        <time>2020-03-08T21:56:24Z</time>
      </trkpt>
      <trkpt lat="48.94026" lon="7.88106">
        <ele>150</ele>
        <time>2020-03-08T21:56:07Z</time>
      </trkpt>
      <trkpt lat="48.94107" lon="7.88073">
        <ele>150</ele>
        <time>2020-03-08T21:56:00Z</time>
      </trkpt>
      <trkpt lat="48.94189" lon="7.88058">
        <ele>151</ele>
        <time>2020-03-08T21:55:45Z</time>
      </trkpt>
      <trkpt lat="48.94273" lon="7.88047">
        <ele>152</ele>
        <time>2020-03-08T21:55:27Z</time>
      </trkpt>
      <trkpt lat="48.94315" lon="7.88056">
        <ele>151</ele>
      </trkpt>
      <trkpt lat="48.94369" lon="7.88">
        <ele>155.4</ele>
      </trkpt>
      <trkpt lat="48.94439" lon="7.87918">
        <ele>160.2</ele>
      </trkpt>
      <trkpt lat="48.94527" lon="7.87907">
        <ele>165.3</ele>
      </trkpt>
      <trkpt lat="48.94672" lon="7.87937">
        <ele>170.1</ele>
      </trkpt>
      <trkpt lat="48.94752" lon="7.87944">
        <ele>175.3</ele>
      </trkpt>
      <trkpt lat="48.94747" lon="7.87834">
        <ele>171.9</ele>
      </trkpt>
      <trkpt lat="48.94742" lon="7.87699">
        <ele>172.8</ele>
      </trkpt>
      <trkpt lat="48.94759" lon="7.87511">
        <ele>180.9</ele>
      </trkpt>
      <trkpt lat="48.94784" lon="7.87447">
        <ele>180.7</ele>
      </trkpt>
      <trkpt lat="48.94795" lon="7.874">
        <ele>178.4</ele>
      </trkpt>
      <trkpt lat="48.94806" lon="7.87406">
        <ele>178.7</ele>
      </trkpt>
      <trkpt lat="48.94821" lon="7.87436">
        <ele>180.8</ele>
      </trkpt>
      <trkpt lat="48.94843" lon="7.87456">
        <ele>182.4</ele>
      </trkpt>
      <trkpt lat="48.94872" lon="7.87479">
        <ele>183.1</ele>
      </trkpt>
      <trkpt lat="48.94892" lon="7.87511">
        <ele>185.8</ele>
      </trkpt>
      <trkpt lat="48.94904" lon="7.87542">
        <ele>186.5</ele>
      </trkpt>
      <trkpt lat="48.9491" lon="7.87511">
        <ele>185.6</ele>
      </trkpt>
      <trkpt lat="48.94937" lon="7.87428">
        <ele>182.4</ele>
      </trkpt>
      <trkpt lat="48.94949" lon="7.87283">
        <ele>179.6</ele>
      </trkpt>
      <trkpt lat="48.94946" lon="7.87275">
        <ele>182</ele>
        <time>2020-03-08T21:52:26Z</time>
      </trkpt>
      <trkpt lat="48.94967" lon="7.87152">
        <ele>181</ele>
        <time>2020-03-08T21:52:18Z</time>
      </trkpt>
      <trkpt lat="48.94919" lon="7.87073">
        <ele>174</ele>
        <time>2020-03-08T21:52:16Z</time>
      </trkpt>
      <trkpt lat="48.94905" lon="7.86969">
        <ele>172</ele>
        <time>2020-03-08T21:52:10Z</time>
      </trkpt>
      <trkpt lat="48.94931" lon="7.86849">
        <ele>174</ele>
        <time>2020-03-08T21:51:55Z</time>
      </trkpt>
      <trkpt lat="48.94962" lon="7.86731">
        <ele>177</ele>
        <time>2020-03-08T21:51:38Z</time>
      </trkpt>
      <trkpt lat="48.95035" lon="7.86674">
        <ele>187</ele>
        <time>2020-03-08T21:51:22Z</time>
      </trkpt>
      <trkpt lat="48.95112" lon="7.86625">
        <ele>178</ele>
        <time>2020-03-08T21:51:10Z</time>
      </trkpt>
      <trkpt lat="48.95174" lon="7.86542">
        <ele>177</ele>
        <time>2020-03-08T21:50:55Z</time>
      </trkpt>
      <trkpt lat="48.95252" lon="7.86511">
        <ele>179</ele>
        <time>2020-03-08T21:50:47Z</time>
      </trkpt>
      <trkpt lat="48.95333" lon="7.86522">
        <ele>184</ele>
        <time>2020-03-08T21:50:45Z</time>
      </trkpt>
      <trkpt lat="48.95372" lon="7.86427">
        <ele>184</ele>
        <time>2020-03-08T21:50:43Z</time>
      </trkpt>
      <trkpt lat="48.95365" lon="7.863">
        <ele>181</ele>
        <time>2020-03-08T21:50:34Z</time>
      </trkpt>
      <trkpt lat="48.95379" lon="7.86195">
        <ele>181</ele>
        <time>2020-03-08T21:50:26Z</time>
      </trkpt>
      <trkpt lat="48.9546" lon="7.86187">
        <ele>189</ele>
        <time>2020-03-08T21:50:24Z</time>
      </trkpt>
      <trkpt lat="48.95527" lon="7.86253">
        <ele>196</ele>
        <time>2020-03-08T21:50:17Z</time>
      </trkpt>
      <trkpt lat="48.95609" lon="7.86229">
        <ele>202</ele>
        <time>2020-03-08T21:50:05Z</time>
      </trkpt>
      <trkpt lat="48.95692" lon="7.86209">
        <ele>209</ele>
        <time>2020-03-08T21:50:03Z</time>
      </trkpt>
      <trkpt lat="48.95771" lon="7.86249">
        <ele>211</ele>
        <time>2020-03-08T21:50:00Z</time>
      </trkpt>
      <trkpt lat="48.95846" lon="7.86303">
        <ele>212</ele>
        <time>2020-03-08T21:49:52Z</time>
      </trkpt>
      <trkpt lat="48.95925" lon="7.86291">
        <ele>213</ele>
        <time>2020-03-08T21:49:40Z</time>
      </trkpt>
      <trkpt lat="48.96005" lon="7.86254">
        <ele>213</ele>
        <time>2020-03-08T21:49:20Z</time>
      </trkpt>
      <trkpt lat="48.96087" lon="7.8623">
        <ele>214</ele>
        <time>2020-03-08T21:49:01Z</time>
      </trkpt>
      <trkpt lat="48.96169" lon="7.86211">
        <ele>215</ele>
        <time>2020-03-08T21:48:59Z</time>
      </trkpt>
      <trkpt lat="48.96252" lon="7.86192">
        <ele>210</ele>
        <time>2020-03-08T21:48:46Z</time>
      </trkpt>
      <trkpt lat="48.96329" lon="7.86166">
        <ele>199</ele>
        <time>2020-03-08T21:48:32Z</time>
      </trkpt>
      <trkpt lat="48.96338" lon="7.86091">
        <ele>220.1</ele>
      </trkpt>
      <trkpt lat="48.96327" lon="7.8602">
        <ele>216.2</ele>
      </trkpt>
      <trkpt lat="48.96307" lon="7.8596">
        <ele>210.6</ele>
      </trkpt>
      <trkpt lat="48.9628" lon="7.8585">
        <ele>201.8</ele>
      </trkpt>
      <trkpt lat="48.96232" lon="7.85738">
        <ele>200.5</ele>
      </trkpt>
      <trkpt lat="48.96278" lon="7.85723">
        <ele>187.6</ele>
      </trkpt>
      <trkpt lat="48.96316" lon="7.85689">
        <ele>184.4</ele>
      </trkpt>
      <trkpt lat="48.96334" lon="7.8565">
        <ele>180.1</ele>
      </trkpt>
      <trkpt lat="48.96334" lon="7.85566">
        <ele>176.8</ele>
      </trkpt>
      <trkpt lat="48.96339" lon="7.8542">
        <ele>173.9</ele>
      </trkpt>
      <trkpt lat="48.96328" lon="7.85267">
        <ele>178.6</ele>
      </trkpt>
      <trkpt lat="48.96328" lon="7.85213">
        <ele>180.9</ele>
      </trkpt>
      <trkpt lat="48.96321" lon="7.85181">
        <ele>182.6</ele>
      </trkpt>
      <trkpt lat="48.96309" lon="7.85168">
        <ele>184</ele>
        <time>2020-03-08T21:45:24Z</time>
      </trkpt>
      <trkpt lat="48.96272" lon="7.8507">
        <ele>183</ele>
        <time>2020-03-08T21:45:09Z</time>
      </trkpt>
      <trkpt lat="48.96353" lon="7.85044">
        <ele>188</ele>
        <time>2020-03-08T21:44:54Z</time>
      </trkpt>
      <trkpt lat="48.96436" lon="7.85025">
        <ele>192</ele>
        <time>2020-03-08T21:44:35Z</time>
      </trkpt>
      <trkpt lat="48.96519" lon="7.85015">
        <ele>196</ele>
        <time>2020-03-08T21:44:23Z</time>
      </trkpt>
      <trkpt lat="48.96602" lon="7.85004">
        <ele>200</ele>
        <time>2020-03-08T21:44:03Z</time>
      </trkpt>
      <trkpt lat="48.96686" lon="7.84993">
        <ele>204</ele>
        <time>2020-03-08T21:43:53Z</time>
      </trkpt>
      <trkpt lat="48.96768" lon="7.84972">
        <ele>204</ele>
        <time>2020-03-08T21:43:37Z</time>
      </trkpt>
      <trkpt lat="48.96844" lon="7.84927">
        <ele>209</ele>
        <time>2020-03-08T21:43:18Z</time>
      </trkpt>
      <trkpt lat="48.96909" lon="7.84847">
        <ele>215</ele>
        <time>2020-03-08T21:43:07Z</time>
      </trkpt>
      <trkpt lat="48.96967" lon="7.84755">
        <ele>215</ele>
        <time>2020-03-08T21:43:05Z</time>
      </trkpt>
      <trkpt lat="48.97021" lon="7.84659">
        <ele>215</ele>
        <time>2020-03-08T21:42:46Z</time>
      </trkpt>
      <trkpt lat="48.9707" lon="7.84557">
        <ele>217</ele>
        <time>2020-03-08T21:42:34Z</time>
      </trkpt>
      <trkpt lat="48.971" lon="7.84438">
        <ele>221</ele>
        <time>2020-03-08T21:42:23Z</time>
      </trkpt>
      <trkpt lat="48.97131" lon="7.8432">
        <ele>226</ele>
        <time>2020-03-08T21:42:09Z</time>
      </trkpt>
      <trkpt lat="48.97162" lon="7.84201">
        <ele>231</ele>
        <time>2020-03-08T21:41:56Z</time>
      </trkpt>
      <trkpt lat="48.97222" lon="7.84133">
        <ele>232</ele>
        <time>2020-03-08T21:41:40Z</time>
      </trkpt>
      <trkpt lat="48.97302" lon="7.84099">
        <ele>237</ele>
        <time>2020-03-08T21:41:32Z</time>
      </trkpt>
      <trkpt lat="48.97383" lon="7.84065">
        <ele>242</ele>
        <time>2020-03-08T21:41:21Z</time>
      </trkpt>
      <trkpt lat="48.9746" lon="7.84018">
        <ele>240</ele>
        <time>2020-03-08T21:41:17Z</time>
      </trkpt>
      <trkpt lat="48.97532" lon="7.83956">
        <ele>243</ele>
        <time>2020-03-08T21:40:59Z</time>
      </trkpt>
      <trkpt lat="48.97599" lon="7.83879">
        <ele>253</ele>
        <time>2020-03-08T21:40:47Z</time>
      </trkpt>
      <trkpt lat="48.97666" lon="7.83803">
        <ele>259</ele>
        <time>2020-03-08T21:40:36Z</time>
      </trkpt>
      <trkpt lat="48.97736" lon="7.83732">
        <ele>270</ele>
        <time>2020-03-08T21:40:29Z</time>
      </trkpt>
      <trkpt lat="48.97805" lon="7.8367">
        <ele>281</ele>
        <time>2020-03-08T21:40:12Z</time>
      </trkpt>
      <trkpt lat="48.97875" lon="7.8374">
        <ele>281</ele>
        <time>2020-03-08T21:40:05Z</time>
      </trkpt>
      <trkpt lat="48.97935" lon="7.83826">
        <ele>283</ele>
        <time>2020-03-08T21:39:58Z</time>
      </trkpt>
      <trkpt lat="48.97983" lon="7.8393">
        <ele>273</ele>
        <time>2020-03-08T21:39:55Z</time>
      </trkpt>
      <trkpt lat="48.98052" lon="7.8395">
        <ele>277</ele>
        <time>2020-03-08T21:39:50Z</time>
      </trkpt>
      <trkpt lat="48.98129" lon="7.83987">
        <ele>288</ele>
        <time>2020-03-08T21:39:34Z</time>
      </trkpt>
      <trkpt lat="48.98206" lon="7.84036">
        <ele>305</ele>
        <time>2020-03-08T21:39:28Z</time>
      </trkpt>
      <trkpt lat="48.98283" lon="7.84085">
        <ele>318</ele>
        <time>2020-03-08T21:39:20Z</time>
      </trkpt>
      <trkpt lat="48.98354" lon="7.8415">
        <ele>326</ele>
        <time>2020-03-08T21:39:14Z</time>
      </trkpt>
      <trkpt lat="48.98422" lon="7.84224">
        <ele>331</ele>
        <time>2020-03-08T21:39:06Z</time>
      </trkpt>
      <trkpt lat="48.98489" lon="7.84299">
        <ele>334</ele>
        <time>2020-03-08T21:39:04Z</time>
      </trkpt>
      <trkpt lat="48.98554" lon="7.84374">
        <ele>342</ele>
        <time>2020-03-08T21:38:48Z</time>
      </trkpt>
      <trkpt lat="48.98564" lon="7.84392">
        <ele>342</ele>
        <time>2020-03-08T21:38:31Z</time>
      </trkpt>
      <trkpt lat="48.98598" lon="7.84454">
        <ele>343</ele>
        <time>2020-03-08T21:38:24Z</time>
      </trkpt>
      <trkpt lat="48.98637" lon="7.84548">
        <ele>352.2</ele>
      </trkpt>
      <trkpt lat="48.98671" lon="7.84568">
        <ele>363.3</ele>
      </trkpt>
      <trkpt lat="48.98712" lon="7.84612">
        <ele>363.5</ele>
      </trkpt>
      <trkpt lat="48.98746" lon="7.8463">
        <ele>364.9</ele>
      </trkpt>
      <trkpt lat="48.98766" lon="7.84641">
        <ele>368.5</ele>
      </trkpt>
      <trkpt lat="48.98803" lon="7.84599">
        <ele>371.6</ele>
      </trkpt>
      <trkpt lat="48.98811" lon="7.84582">
        <ele>378.4</ele>
      </trkpt>
      <trkpt lat="48.98775" lon="7.84514">
        <ele>382.6</ele>
      </trkpt>
      <trkpt lat="48.98718" lon="7.84474">
        <ele>381.7</ele>
      </trkpt>
      <trkpt lat="48.98678" lon="7.84374">
        <ele>396.3</ele>
      </trkpt>
      <trkpt lat="48.98644" lon="7.84322">
        <ele>393.9</ele>
      </trkpt>
      <trkpt lat="48.98624" lon="7.84282">
        <ele>393.5</ele>
      </trkpt>
      <trkpt lat="48.98584" lon="7.84195">
        <ele>404.1</ele>
      </trkpt>
      <trkpt lat="48.98526" lon="7.84166">
        <ele>394.4</ele>
      </trkpt>
      <trkpt lat="48.98433" lon="7.84034">
        <ele>392.6</ele>
      </trkpt>
      <trkpt lat="48.984" lon="7.84025">
        <ele>379.7</ele>
      </trkpt>
      <trkpt lat="48.98376" lon="7.84003">
        <ele>359</ele>
        <time>2020-03-08T21:36:22Z</time>
      </trkpt>
      <trkpt lat="48.98301" lon="7.83946">
        <ele>347</ele>
        <time>2020-03-08T21:36:15Z</time>
      </trkpt>
      <trkpt lat="48.98226" lon="7.83889">
        <ele>332</ele>
        <time>2020-03-08T21:36:13Z</time>
      </trkpt>
      <trkpt lat="48.98152" lon="7.83831">
        <ele>321</ele>
        <time>2020-03-08T21:35:53Z</time>
      </trkpt>
      <trkpt lat="48.98077" lon="7.83774">
        <ele>316</ele>
        <time>2020-03-08T21:35:43Z</time>
      </trkpt>
      <trkpt lat="48.98003" lon="7.83717">
        <ele>314</ele>
        <time>2020-03-08T21:35:25Z</time>
      </trkpt>
      <trkpt lat="48.9793" lon="7.83655">
        <ele>307</ele>
        <time>2020-03-08T21:35:17Z</time>
      </trkpt>
      <trkpt lat="48.97877" lon="7.83558">
        <ele>366</ele>
        <time>2020-03-08T21:34:57Z</time>
      </trkpt>
      <trkpt lat="48.97823" lon="7.8346">
        <ele>301</ele>
        <time>2020-03-08T21:34:46Z</time>
      </trkpt>
      <trkpt lat="48.97769" lon="7.83363">
        <ele>311</ele>
        <time>2020-03-08T21:34:41Z</time>
      </trkpt>
      <trkpt lat="48.97715" lon="7.83266">
        <ele>317</ele>
        <time>2020-03-08T21:34:39Z</time>
      </trkpt>
      <trkpt lat="48.97661" lon="7.83168">
        <ele>323</ele>
        <time>2020-03-08T21:34:23Z</time>
      </trkpt>
      <trkpt lat="48.97614" lon="7.83064">
        <ele>329</ele>
        <time>2020-03-08T21:34:06Z</time>
      </trkpt>
      <trkpt lat="48.97568" lon="7.82957">
        <ele>333</ele>
        <time>2020-03-08T21:33:59Z</time>
      </trkpt>
      <trkpt lat="48.9754" lon="7.82876">
        <ele>351.1</ele>
      </trkpt>
      <trkpt lat="48.97517" lon="7.82783">
        <ele>352.8</ele>
      </trkpt>
      <trkpt lat="48.97451" lon="7.82701">
        <ele>337.5</ele>
      </trkpt>
      <trkpt lat="48.9743" lon="7.8262">
        <ele>341</ele>
      </trkpt>
      <trkpt lat="48.97409" lon="7.82544">
        <ele>327.2</ele>
      </trkpt>
      <trkpt lat="48.9736" lon="7.82472">
        <ele>323.8</ele>
      </trkpt>
      <trkpt lat="48.97366" lon="7.82568">
        <ele>320.8</ele>
      </trkpt>
      <trkpt lat="48.97378" lon="7.82664">
        <ele>318.6</ele>
      </trkpt>
      <trkpt lat="48.9731" lon="7.82603">
        <ele>299</ele>
      </trkpt>
      <trkpt lat="48.97266" lon="7.82622">
        <ele>293.3</ele>
      </trkpt>
      <trkpt lat="48.97153" lon="7.8265">
        <ele>273.5</ele>
      </trkpt>
      <trkpt lat="48.97137" lon="7.82637">
        <ele>272</ele>
      </trkpt>
      <trkpt lat="48.97137" lon="7.8259">
        <ele>271</ele>
      </trkpt>
      <trkpt lat="48.97144" lon="7.8251">
        <ele>270.4</ele>
      </trkpt>
      <trkpt lat="48.97172" lon="7.82435">
        <ele>278.6</ele>
      </trkpt>
      <trkpt lat="48.97183" lon="7.82354">
        <ele>282.8</ele>
      </trkpt>
      <trkpt lat="48.9719" lon="7.82302">
        <ele>285.9</ele>
      </trkpt>
      <trkpt lat="48.97204" lon="7.82243">
        <ele>290.4</ele>
      </trkpt>
      <trkpt lat="48.97185" lon="7.82219">
        <ele>290.3</ele>
      </trkpt>
      <trkpt lat="48.97162" lon="7.82206">
        <ele>288.5</ele>
      </trkpt>
      <trkpt lat="48.97194" lon="7.822">
        <ele>291.6</ele>
      </trkpt>
      <trkpt lat="48.97219" lon="7.82185">
        <ele>293.2</ele>
      </trkpt>
      <trkpt lat="48.97254" lon="7.82176">
        <ele>301.3</ele>
      </trkpt>
      <trkpt lat="48.97313" lon="7.82102">
        <ele>314.7</ele>
      </trkpt>
      <trkpt lat="48.97348" lon="7.82068">
        <ele>327.2</ele>
      </trkpt>
      <trkpt lat="48.97374" lon="7.82067">
        <ele>331.1</ele>
      </trkpt>
      <trkpt lat="48.97416" lon="7.82078">
        <ele>338.2</ele>
      </trkpt>
      <trkpt lat="48.97445" lon="7.82083">
        <ele>346.7</ele>
      </trkpt>
      <trkpt lat="48.97462" lon="7.82073">
        <ele>349.6</ele>
      </trkpt>
      <trkpt lat="48.97466" lon="7.82043">
        <ele>349.6</ele>
      </trkpt>
      <trkpt lat="48.97456" lon="7.82016">
        <ele>348.2</ele>
      </trkpt>
      <trkpt lat="48.97437" lon="7.82">
        <ele>345.1</ele>
      </trkpt>
      <trkpt lat="48.97498" lon="7.81954">
        <ele>355.9</ele>
      </trkpt>
      <trkpt lat="48.97512" lon="7.82009">
        <ele>362.5</ele>
      </trkpt>
      <trkpt lat="48.97531" lon="7.82097">
        <ele>369.8</ele>
      </trkpt>
      <trkpt lat="48.9755" lon="7.82168">
        <ele>374.8</ele>
      </trkpt>
      <trkpt lat="48.97571" lon="7.82228">
        <ele>377.9</ele>
      </trkpt>
      <trkpt lat="48.97619" lon="7.82239">
        <ele>392.1</ele>
      </trkpt>
      <trkpt lat="48.97651" lon="7.82248">
        <ele>397.3</ele>
      </trkpt>
      <trkpt lat="48.97665" lon="7.82223">
        <ele>397.1</ele>
      </trkpt>
      <trkpt lat="48.97678" lon="7.8219">
        <ele>413</ele>
      </trkpt>
      <trkpt lat="48.97677" lon="7.82138">
        <ele>417.8</ele>
      </trkpt>
      <trkpt lat="48.97662" lon="7.8207">
        <ele>408.8</ele>
      </trkpt>
      <trkpt lat="48.97745" lon="7.8216">
        <ele>431</ele>
      </trkpt>
      <trkpt lat="48.9776" lon="7.82194">
        <ele>440</ele>
      </trkpt>
      <trkpt lat="48.97762" lon="7.82253">
        <ele>435.9</ele>
      </trkpt>
      <trkpt lat="48.9777" lon="7.82327">
        <ele>438.1</ele>
      </trkpt>
      <trkpt lat="48.97767" lon="7.82399">
        <ele>438.8</ele>
      </trkpt>
      <trkpt lat="48.9775" lon="7.82456">
        <ele>428.6</ele>
      </trkpt>
      <trkpt lat="48.97731" lon="7.82503">
        <ele>433.9</ele>
      </trkpt>
      <trkpt lat="48.97728" lon="7.82547">
        <ele>432</ele>
      </trkpt>
      <trkpt lat="48.97826" lon="7.82362">
        <ele>448.3</ele>
      </trkpt>
      <trkpt lat="48.97864" lon="7.8225">
        <ele>458.8</ele>
      </trkpt>
      <trkpt lat="48.97894" lon="7.82255">
        <ele>460.7</ele>
      </trkpt>
      <trkpt lat="48.97899" lon="7.82378">
        <ele>459.9</ele>
      </trkpt>
      <trkpt lat="48.97845" lon="7.8256">
        <ele>471.4</ele>
      </trkpt>
      <trkpt lat="48.97842" lon="7.82605">
        <ele>478</ele>
      </trkpt>
      <trkpt lat="48.97847" lon="7.82618">
        <ele>479.4</ele>
      </trkpt>
      <trkpt lat="48.97902" lon="7.82566">
        <ele>475.4</ele>
      </trkpt>
      <trkpt lat="48.9801" lon="7.82502">
        <ele>474.6</ele>
      </trkpt>
      <trkpt lat="48.97971" lon="7.82288">
        <ele>465.7</ele>
      </trkpt>
      <trkpt lat="48.9795" lon="7.82268">
        <ele>465</ele>
      </trkpt>
      <trkpt lat="48.97919" lon="7.82264">
        <ele>463.9</ele>
      </trkpt>
      <trkpt lat="48.97931" lon="7.82213">
        <ele>466</ele>
      </trkpt>
      <trkpt lat="48.97889" lon="7.82219">
        <ele>460.6</ele>
      </trkpt>
      <trkpt lat="48.97847" lon="7.81691">
        <ele>454.1</ele>
      </trkpt>
      <trkpt lat="48.97808" lon="7.81735">
        <ele>440.6</ele>
      </trkpt>
      <trkpt lat="48.97807" lon="7.81665">
        <ele>443.6</ele>
      </trkpt>
      <trkpt lat="48.97793" lon="7.8164">
        <ele>442.3</ele>
      </trkpt>
      <trkpt lat="48.97715" lon="7.81617">
        <ele>435</ele>
      </trkpt>
      <trkpt lat="48.97627" lon="7.81612">
        <ele>431.8</ele>
      </trkpt>
      <trkpt lat="48.97533" lon="7.81651">
        <ele>426.8</ele>
      </trkpt>
      <trkpt lat="48.97404" lon="7.8173">
        <ele>393.3</ele>
      </trkpt>
      <trkpt lat="48.9738" lon="7.81655">
        <ele>402</ele>
      </trkpt>
      <trkpt lat="48.97328" lon="7.81423">
        <ele>412.6</ele>
      </trkpt>
      <trkpt lat="48.97328" lon="7.81373">
        <ele>416.4</ele>
      </trkpt>
      <trkpt lat="48.97316" lon="7.81303">
        <ele>427.9</ele>
      </trkpt>
      <trkpt lat="48.97288" lon="7.81145">
        <ele>436.7</ele>
      </trkpt>
      <trkpt lat="48.97267" lon="7.81072">
        <ele>434.2</ele>
      </trkpt>
      <trkpt lat="48.97247" lon="7.80975">
        <ele>427.7</ele>
      </trkpt>
      <trkpt lat="48.97238" lon="7.80884">
        <ele>428.5</ele>
      </trkpt>
      <trkpt lat="48.97201" lon="7.80844">
        <ele>426.2</ele>
      </trkpt>
      <trkpt lat="48.97156" lon="7.80948">
        <ele>407</ele>
      </trkpt>
      <trkpt lat="48.97126" lon="7.81066">
        <ele>393.8</ele>
      </trkpt>
      <trkpt lat="48.97117" lon="7.81124">
        <ele>386.4</ele>
      </trkpt>
      <trkpt lat="48.97121" lon="7.81153">
        <ele>359</ele>
        <time>2020-03-08T21:23:22Z</time>
      </trkpt>
      <trkpt lat="48.97134" lon="7.81278">
        <ele>346</ele>
        <time>2020-03-08T21:23:17Z</time>
      </trkpt>
      <trkpt lat="48.97129" lon="7.81306">
        <ele>340</ele>
        <time>2020-03-08T21:23:04Z</time>
      </trkpt>
      <trkpt lat="48.97076" lon="7.81208">
        <ele>340</ele>
        <time>2020-03-08T21:23:01Z</time>
      </trkpt>
      <trkpt lat="48.97045" lon="7.81091">
        <ele>320</ele>
        <time>2020-03-08T21:22:46Z</time>
      </trkpt>
      <trkpt lat="48.97047" lon="7.8104">
        <ele>361.8</ele>
      </trkpt>
      <trkpt lat="48.97043" lon="7.81015">
        <ele>362.4</ele>
      </trkpt>
      <trkpt lat="48.97026" lon="7.80989">
        <ele>364.6</ele>
      </trkpt>
      <trkpt lat="48.96974" lon="7.80964">
        <ele>344.3</ele>
      </trkpt>
      <trkpt lat="48.96963" lon="7.80941">
        <ele>344</ele>
      </trkpt>
      <trkpt lat="48.96952" lon="7.80885">
        <ele>347.2</ele>
      </trkpt>
      <trkpt lat="48.96938" lon="7.80856">
        <ele>344.7</ele>
      </trkpt>
      <trkpt lat="48.96916" lon="7.80872">
        <ele>327.5</ele>
      </trkpt>
      <trkpt lat="48.96876" lon="7.80859">
        <ele>324.1</ele>
      </trkpt>
      <trkpt lat="48.9683" lon="7.80839">
        <ele>313.1</ele>
      </trkpt>
      <trkpt lat="48.96814" lon="7.80813">
        <ele>312.1</ele>
      </trkpt>
      <trkpt lat="48.96863" lon="7.80699">
        <ele>329.8</ele>
      </trkpt>
      <trkpt lat="48.96887" lon="7.80612">
        <ele>335.7</ele>
      </trkpt>
      <trkpt lat="48.96887" lon="7.8055">
        <ele>333.7</ele>
      </trkpt>
      <trkpt lat="48.96916" lon="7.80551">
        <ele>337.2</ele>
      </trkpt>
      <trkpt lat="48.9694" lon="7.80495">
        <ele>352.6</ele>
      </trkpt>
      <trkpt lat="48.96962" lon="7.8046">
        <ele>357.7</ele>
      </trkpt>
      <trkpt lat="48.96999" lon="7.80446">
        <ele>362.6</ele>
      </trkpt>
      <trkpt lat="48.97027" lon="7.80429">
        <ele>381.2</ele>
      </trkpt>
      <trkpt lat="48.97034" lon="7.80407">
        <ele>381.7</ele>
      </trkpt>
      <trkpt lat="48.97024" lon="7.80377">
        <ele>381.7</ele>
      </trkpt>
      <trkpt lat="48.97013" lon="7.8033">
        <ele>380</ele>
      </trkpt>
      <trkpt lat="48.97016" lon="7.80302">
        <ele>383.8</ele>
      </trkpt>
      <trkpt lat="48.97042" lon="7.80297">
        <ele>387.7</ele>
      </trkpt>
      <trkpt lat="48.97064" lon="7.80313">
        <ele>391.6</ele>
      </trkpt>
      <trkpt lat="48.97111" lon="7.80378">
        <ele>407.2</ele>
      </trkpt>
      <trkpt lat="48.97158" lon="7.80413">
        <ele>415.8</ele>
      </trkpt>
      <trkpt lat="48.97196" lon="7.80423">
        <ele>421.1</ele>
      </trkpt>
      <trkpt lat="48.97221" lon="7.80469">
        <ele>422.7</ele>
      </trkpt>
      <trkpt lat="48.97259" lon="7.80478">
        <ele>427</ele>
      </trkpt>
      <trkpt lat="48.97255" lon="7.80394">
        <ele>424.7</ele>
      </trkpt>
      <trkpt lat="48.97257" lon="7.8035">
        <ele>425.5</ele>
      </trkpt>
      <trkpt lat="48.9723" lon="7.80271">
        <ele>425.2</ele>
      </trkpt>
      <trkpt lat="48.97259" lon="7.80185">
        <ele>428.1</ele>
      </trkpt>
      <trkpt lat="48.97247" lon="7.79927">
        <ele>433.7</ele>
      </trkpt>
      <trkpt lat="48.97233" lon="7.79899">
        <ele>409</ele>
        <time>2020-03-08T21:19:22Z</time>
      </trkpt>
      <trkpt lat="48.9721" lon="7.79777">
        <ele>412</ele>
        <time>2020-03-08T21:19:07Z</time>
      </trkpt>
      <trkpt lat="48.97189" lon="7.79654">
        <ele>422</ele>
        <time>2020-03-08T21:19:05Z</time>
      </trkpt>
      <trkpt lat="48.97174" lon="7.79528">
        <ele>435</ele>
        <time>2020-03-08T21:18:52Z</time>
      </trkpt>
      <trkpt lat="48.97152" lon="7.79406">
        <ele>448</ele>
        <time>2020-03-08T21:18:45Z</time>
      </trkpt>
      <trkpt lat="48.97125" lon="7.79285">
        <ele>450</ele>
        <time>2020-03-08T21:18:33Z</time>
      </trkpt>
      <trkpt lat="48.97111" lon="7.79163">
        <ele>452</ele>
        <time>2020-03-08T21:18:18Z</time>
      </trkpt>
      <trkpt lat="48.97117" lon="7.79037">
        <ele>453</ele>
        <time>2020-03-08T21:18:04Z</time>
      </trkpt>
      <trkpt lat="48.97103" lon="7.78912">
        <ele>451</ele>
        <time>2020-03-08T21:17:53Z</time>
      </trkpt>
      <trkpt lat="48.97074" lon="7.78793">
        <ele>447</ele>
        <time>2020-03-08T21:17:46Z</time>
      </trkpt>
      <trkpt lat="48.97027" lon="7.78761">
        <ele>446</ele>
        <time>2020-03-08T21:17:42Z</time>
      </trkpt>
      <trkpt lat="48.96956" lon="7.78824">
        <ele>437</ele>
        <time>2020-03-08T21:17:38Z</time>
      </trkpt>
      <trkpt lat="48.96904" lon="7.78872">
        <ele>428</ele>
        <time>2020-03-08T21:17:28Z</time>
      </trkpt>
      <trkpt lat="48.96821" lon="7.7887">
        <ele>417</ele>
        <time>2020-03-08T21:17:12Z</time>
      </trkpt>
      <trkpt lat="48.96741" lon="7.78834">
        <ele>410</ele>
        <time>2020-03-08T21:16:52Z</time>
      </trkpt>
      <trkpt lat="48.96719" lon="7.78884">
        <ele>400</ele>
        <time>2020-03-08T21:16:45Z</time>
      </trkpt>
      <trkpt lat="48.96781" lon="7.7897">
        <ele>399</ele>
        <time>2020-03-08T21:16:25Z</time>
      </trkpt>
      <trkpt lat="48.96844" lon="7.79053">
        <ele>401</ele>
        <time>2020-03-08T21:16:06Z</time>
      </trkpt>
      <trkpt lat="48.96762" lon="7.79049">
        <ele>385</ele>
        <time>2020-03-08T21:15:57Z</time>
      </trkpt>
      <trkpt lat="48.96798" lon="7.79093">
        <ele>388</ele>
        <time>2020-03-08T21:15:39Z</time>
      </trkpt>
      <trkpt lat="48.96715" lon="7.79089">
        <ele>369</ele>
        <time>2020-03-08T21:15:30Z</time>
      </trkpt>
      <trkpt lat="48.96754" lon="7.79195">
        <ele>363</ele>
        <time>2020-03-08T21:15:14Z</time>
      </trkpt>
      <trkpt lat="48.96743" lon="7.79321">
        <ele>344</ele>
        <time>2020-03-08T21:14:55Z</time>
      </trkpt>
      <trkpt lat="48.96743" lon="7.79448">
        <ele>332</ele>
        <time>2020-03-08T21:14:40Z</time>
      </trkpt>
      <trkpt lat="48.96747" lon="7.79575">
        <ele>324</ele>
        <time>2020-03-08T21:14:20Z</time>
      </trkpt>
      <trkpt lat="48.96719" lon="7.79564">
        <ele>317</ele>
        <time>2020-03-08T21:14:06Z</time>
      </trkpt>
      <trkpt lat="48.96696" lon="7.79442">
        <ele>318</ele>
        <time>2020-03-08T21:13:50Z</time>
      </trkpt>
      <trkpt lat="48.96667" lon="7.79323">
        <ele>323</ele>
        <time>2020-03-08T21:13:35Z</time>
      </trkpt>
      <trkpt lat="48.96621" lon="7.79234">
        <ele>320</ele>
        <time>2020-03-08T21:13:19Z</time>
      </trkpt>
      <trkpt lat="48.96545" lon="7.79184">
        <ele>309</ele>
        <time>2020-03-08T21:12:59Z</time>
      </trkpt>
      <trkpt lat="48.96508" lon="7.79072">
        <ele>314</ele>
        <time>2020-03-08T21:12:41Z</time>
      </trkpt>
      <trkpt lat="48.96426" lon="7.7905">
        <ele>303</ele>
        <time>2020-03-08T21:12:38Z</time>
      </trkpt>
      <trkpt lat="48.96346" lon="7.79014">
        <ele>295</ele>
        <time>2020-03-08T21:12:20Z</time>
      </trkpt>
      <trkpt lat="48.96266" lon="7.78978">
        <ele>316</ele>
        <time>2020-03-08T21:12:00Z</time>
      </trkpt>
      <trkpt lat="48.96198" lon="7.78904">
        <ele>306</ele>
        <time>2020-03-08T21:11:43Z</time>
      </trkpt>
      <trkpt lat="48.96234" lon="7.79011">
        <ele>281</ele>
        <time>2020-03-08T21:11:31Z</time>
      </trkpt>
      <trkpt lat="48.9621" lon="7.79">
        <ele>302</ele>
        <time>2020-03-08T21:11:21Z</time>
      </trkpt>
      <trkpt lat="48.96143" lon="7.78925">
        <ele>290</ele>
        <time>2020-03-08T21:11:01Z</time>
      </trkpt>
      <trkpt lat="48.96079" lon="7.78845">
        <ele>270</ele>
        <time>2020-03-08T21:10:51Z</time>
      </trkpt>
      <trkpt lat="48.96018" lon="7.78758">
        <ele>269</ele>
        <time>2020-03-08T21:10:34Z</time>
      </trkpt>
      <trkpt lat="48.95954" lon="7.78676">
        <ele>264</ele>
        <time>2020-03-08T21:10:20Z</time>
      </trkpt>
      <trkpt lat="48.95944" lon="7.78551">
        <ele>259</ele>
        <time>2020-03-08T21:10:05Z</time>
      </trkpt>
      <trkpt lat="48.9592" lon="7.78432">
        <ele>261</ele>
        <time>2020-03-08T21:10:02Z</time>
      </trkpt>
      <trkpt lat="48.95879" lon="7.78321">
        <ele>259</ele>
        <time>2020-03-08T21:10:00Z</time>
      </trkpt>
      <trkpt lat="48.95833" lon="7.78215">
        <ele>255</ele>
        <time>2020-03-08T21:09:57Z</time>
      </trkpt>
      <trkpt lat="48.95801" lon="7.78098">
        <ele>250</ele>
        <time>2020-03-08T21:09:50Z</time>
      </trkpt>
      <trkpt lat="48.95854" lon="7.78034">
        <ele>260</ele>
        <time>2020-03-08T21:09:37Z</time>
      </trkpt>
      <trkpt lat="48.95922" lon="7.78098">
        <ele>271</ele>
        <time>2020-03-08T21:09:20Z</time>
      </trkpt>
      <trkpt lat="48.96004" lon="7.78093">
        <ele>286</ele>
        <time>2020-03-08T21:09:03Z</time>
      </trkpt>
      <trkpt lat="48.96053" lon="7.78125">
        <ele>294</ele>
        <time>2020-03-08T21:08:45Z</time>
      </trkpt>
      <trkpt lat="48.96085" lon="7.78146">
        <ele>300</ele>
        <time>2020-03-08T21:08:43Z</time>
      </trkpt>
      <trkpt lat="48.96168" lon="7.78136">
        <ele>317</ele>
        <time>2020-03-08T21:08:39Z</time>
      </trkpt>
      <trkpt lat="48.96164" lon="7.7822">
        <ele>315</ele>
        <time>2020-03-08T21:08:21Z</time>
      </trkpt>
      <trkpt lat="48.96158" lon="7.78275">
        <ele>327</ele>
        <time>2020-03-08T21:08:17Z</time>
      </trkpt>
      <trkpt lat="48.96207" lon="7.78293">
        <ele>322</ele>
        <time>2020-03-08T21:08:12Z</time>
      </trkpt>
      <trkpt lat="48.96247" lon="7.78405">
        <ele>325</ele>
        <time>2020-03-08T21:07:53Z</time>
      </trkpt>
      <trkpt lat="48.96294" lon="7.78507">
        <ele>333</ele>
        <time>2020-03-08T21:07:37Z</time>
      </trkpt>
      <trkpt lat="48.96361" lon="7.78582">
        <ele>344</ele>
        <time>2020-03-08T21:07:27Z</time>
      </trkpt>
      <trkpt lat="48.96435" lon="7.78641">
        <ele>359</ele>
        <time>2020-03-08T21:07:19Z</time>
      </trkpt>
      <trkpt lat="48.96506" lon="7.78706">
        <ele>358</ele>
        <time>2020-03-08T21:07:02Z</time>
      </trkpt>
      <trkpt lat="48.96584" lon="7.78751">
        <ele>374</ele>
        <time>2020-03-08T21:06:52Z</time>
      </trkpt>
      <trkpt lat="48.96665" lon="7.78784">
        <ele>394</ele>
        <time>2020-03-08T21:06:49Z</time>
      </trkpt>
      <trkpt lat="48.96666" lon="7.78666">
        <ele>420</ele>
        <time>2020-03-08T21:06:41Z</time>
      </trkpt>
      <trkpt lat="48.96709" lon="7.78567">
        <ele>427</ele>
        <time>2020-03-08T21:06:29Z</time>
      </trkpt>
      <trkpt lat="48.96778" lon="7.78494">
        <ele>434</ele>
        <time>2020-03-08T21:06:26Z</time>
      </trkpt>
      <trkpt lat="48.96791" lon="7.78599">
        <ele>432</ele>
        <time>2020-03-08T21:06:11Z</time>
      </trkpt>
      <trkpt lat="48.96813" lon="7.78694">
        <ele>437</ele>
        <time>2020-03-08T21:05:58Z</time>
      </trkpt>
      <trkpt lat="48.96894" lon="7.78667">
        <ele>440</ele>
        <time>2020-03-08T21:05:54Z</time>
      </trkpt>
      <trkpt lat="48.96976" lon="7.78645">
        <ele>449</ele>
        <time>2020-03-08T21:05:40Z</time>
      </trkpt>
      <trkpt lat="48.97038" lon="7.78561">
        <ele>449</ele>
        <time>2020-03-08T21:05:38Z</time>
      </trkpt>
      <trkpt lat="48.97009" lon="7.78441">
        <ele>451</ele>
        <time>2020-03-08T21:05:30Z</time>
      </trkpt>
      <trkpt lat="48.96941" lon="7.78386">
        <ele>448</ele>
        <time>2020-03-08T21:05:11Z</time>
      </trkpt>
      <trkpt lat="48.96859" lon="7.78357">
        <ele>443</ele>
        <time>2020-03-08T21:04:52Z</time>
      </trkpt>
      <trkpt lat="48.96784" lon="7.783">
        <ele>439</ele>
        <time>2020-03-08T21:04:43Z</time>
      </trkpt>
      <trkpt lat="48.96715" lon="7.7823">
        <ele>436</ele>
        <time>2020-03-08T21:04:37Z</time>
      </trkpt>
      <trkpt lat="48.96655" lon="7.78142">
        <ele>429</ele>
        <time>2020-03-08T21:04:28Z</time>
      </trkpt>
      <trkpt lat="48.96583" lon="7.7808">
        <ele>417</ele>
        <time>2020-03-08T21:04:12Z</time>
      </trkpt>
      <trkpt lat="48.96505" lon="7.78036">
        <ele>403</ele>
        <time>2020-03-08T21:04:00Z</time>
      </trkpt>
      <trkpt lat="48.96424" lon="7.7801">
        <ele>382</ele>
        <time>2020-03-08T21:03:42Z</time>
      </trkpt>
      <trkpt lat="48.9634" lon="7.7801">
        <ele>360</ele>
        <time>2020-03-08T21:03:38Z</time>
      </trkpt>
      <trkpt lat="48.9626" lon="7.7798">
        <ele>351</ele>
        <time>2020-03-08T21:03:32Z</time>
      </trkpt>
      <trkpt lat="48.9622" lon="7.77872">
        <ele>336</ele>
        <time>2020-03-08T21:03:29Z</time>
      </trkpt>
      <trkpt lat="48.96178" lon="7.77923">
        <ele>324</ele>
        <time>2020-03-08T21:03:19Z</time>
      </trkpt>
      <trkpt lat="48.96182" lon="7.78012">
        <ele>322</ele>
        <time>2020-03-08T21:03:09Z</time>
      </trkpt>
      <trkpt lat="48.961" lon="7.77985">
        <ele>304</ele>
        <time>2020-03-08T21:02:52Z</time>
      </trkpt>
      <trkpt lat="48.96017" lon="7.77968">
        <ele>289</ele>
        <time>2020-03-08T21:02:48Z</time>
      </trkpt>
      <trkpt lat="48.96038" lon="7.78044">
        <ele>292</ele>
        <time>2020-03-08T21:02:29Z</time>
      </trkpt>
      <trkpt lat="48.95955" lon="7.78046">
        <ele>277</ele>
        <time>2020-03-08T21:02:11Z</time>
      </trkpt>
      <trkpt lat="48.95883" lon="7.77984">
        <ele>265</ele>
        <time>2020-03-08T21:02:03Z</time>
      </trkpt>
      <trkpt lat="48.95805" lon="7.77955">
        <ele>251</ele>
        <time>2020-03-08T21:01:53Z</time>
      </trkpt>
      <trkpt lat="48.95723" lon="7.77964">
        <ele>238</ele>
        <time>2020-03-08T21:01:35Z</time>
      </trkpt>
      <trkpt lat="48.95652" lon="7.77919">
        <ele>226</ele>
        <time>2020-03-08T21:01:19Z</time>
      </trkpt>
      <trkpt lat="48.95652" lon="7.77792">
        <ele>233</ele>
        <time>2020-03-08T21:01:10Z</time>
      </trkpt>
      <trkpt lat="48.95627" lon="7.77674">
        <ele>240</ele>
        <time>2020-03-08T21:01:02Z</time>
      </trkpt>
      <trkpt lat="48.95587" lon="7.77564">
        <ele>256</ele>
        <time>2020-03-08T21:00:50Z</time>
      </trkpt>
      <trkpt lat="48.95575" lon="7.77438">
        <ele>252</ele>
        <time>2020-03-08T21:00:42Z</time>
      </trkpt>
      <trkpt lat="48.95645" lon="7.77379">
        <ele>260</ele>
        <time>2020-03-08T21:00:31Z</time>
      </trkpt>
      <trkpt lat="48.95725" lon="7.7736">
        <ele>270</ele>
        <time>2020-03-08T21:00:29Z</time>
      </trkpt>
      <trkpt lat="48.95809" lon="7.77359">
        <ele>279</ele>
        <time>2020-03-08T21:00:22Z</time>
      </trkpt>
      <trkpt lat="48.95891" lon="7.77341">
        <ele>289</ele>
        <time>2020-03-08T21:00:08Z</time>
      </trkpt>
      <trkpt lat="48.95957" lon="7.77275">
        <ele>309</ele>
        <time>2020-03-08T20:59:48Z</time>
      </trkpt>
      <trkpt lat="48.9592" lon="7.77177">
        <ele>301</ele>
        <time>2020-03-08T20:59:36Z</time>
      </trkpt>
      <trkpt lat="48.95866" lon="7.7708">
        <ele>299</ele>
        <time>2020-03-08T20:59:34Z</time>
      </trkpt>
      <trkpt lat="48.9581" lon="7.76985">
        <ele>295</ele>
        <time>2020-03-08T20:59:24Z</time>
      </trkpt>
      <trkpt lat="48.95759" lon="7.76887">
        <ele>305</ele>
        <time>2020-03-08T20:59:18Z</time>
      </trkpt>
      <trkpt lat="48.95722" lon="7.76772">
        <ele>278</ele>
        <time>2020-03-08T20:59:14Z</time>
      </trkpt>
      <trkpt lat="48.957" lon="7.76653">
        <ele>272</ele>
        <time>2020-03-08T20:59:06Z</time>
      </trkpt>
      <trkpt lat="48.95702" lon="7.766">
        <ele>272</ele>
        <time>2020-03-08T20:58:50Z</time>
      </trkpt>
      <trkpt lat="48.95707" lon="7.76727">
        <ele>275</ele>
        <time>2020-03-08T20:58:39Z</time>
      </trkpt>
      <trkpt lat="48.95734" lon="7.76818">
        <ele>282</ele>
        <time>2020-03-08T20:58:26Z</time>
      </trkpt>
      <trkpt lat="48.95818" lon="7.7682">
        <ele>299</ele>
        <time>2020-03-08T20:58:22Z</time>
      </trkpt>
      <trkpt lat="48.95901" lon="7.76812">
        <ele>314</ele>
        <time>2020-03-08T20:58:10Z</time>
      </trkpt>
      <trkpt lat="48.95965" lon="7.7687">
        <ele>320</ele>
        <time>2020-03-08T20:58:04Z</time>
      </trkpt>
      <trkpt lat="48.96011" lon="7.76975">
        <ele>324</ele>
        <time>2020-03-08T20:57:56Z</time>
      </trkpt>
      <trkpt lat="48.96047" lon="7.7709">
        <ele>328</ele>
        <time>2020-03-08T20:57:44Z</time>
      </trkpt>
      <trkpt lat="48.96125" lon="7.77077">
        <ele>340</ele>
        <time>2020-03-08T20:57:36Z</time>
      </trkpt>
      <trkpt lat="48.96209" lon="7.77087">
        <ele>355</ele>
        <time>2020-03-08T20:57:34Z</time>
      </trkpt>
      <trkpt lat="48.96292" lon="7.77097">
        <ele>370</ele>
        <time>2020-03-08T20:57:14Z</time>
      </trkpt>
      <trkpt lat="48.96367" lon="7.77148">
        <ele>368</ele>
        <time>2020-03-08T20:56:55Z</time>
      </trkpt>
      <trkpt lat="48.96441" lon="7.77207">
        <ele>377</ele>
        <time>2020-03-08T20:56:52Z</time>
      </trkpt>
      <trkpt lat="48.96515" lon="7.77266">
        <ele>354</ele>
        <time>2020-03-08T20:56:47Z</time>
      </trkpt>
      <trkpt lat="48.96583" lon="7.77339">
        <ele>394</ele>
        <time>2020-03-08T20:56:39Z</time>
      </trkpt>
      <trkpt lat="48.96648" lon="7.7742">
        <ele>402</ele>
        <time>2020-03-08T20:56:22Z</time>
      </trkpt>
      <trkpt lat="48.96712" lon="7.77502">
        <ele>413</ele>
        <time>2020-03-08T20:56:02Z</time>
      </trkpt>
      <trkpt lat="48.96776" lon="7.77583">
        <ele>429</ele>
        <time>2020-03-08T20:55:59Z</time>
      </trkpt>
      <trkpt lat="48.9684" lon="7.77665">
        <ele>415</ele>
        <time>2020-03-08T20:55:46Z</time>
      </trkpt>
      <trkpt lat="48.96904" lon="7.77746">
        <ele>429</ele>
        <time>2020-03-08T20:55:44Z</time>
      </trkpt>
      <trkpt lat="48.96905" lon="7.77833">
        <ele>433</ele>
        <time>2020-03-08T20:55:41Z</time>
      </trkpt>
      <trkpt lat="48.96846" lon="7.77924">
        <ele>438</ele>
        <time>2020-03-08T20:55:32Z</time>
      </trkpt>
      <trkpt lat="48.96871" lon="7.78032">
        <ele>442</ele>
        <time>2020-03-08T20:55:17Z</time>
      </trkpt>
      <trkpt lat="48.96911" lon="7.78144">
        <ele>445</ele>
        <time>2020-03-08T20:55:10Z</time>
      </trkpt>
      <trkpt lat="48.96952" lon="7.78255">
        <ele>449</ele>
        <time>2020-03-08T20:54:59Z</time>
      </trkpt>
      <trkpt lat="48.97007" lon="7.78286">
        <ele>452</ele>
        <time>2020-03-08T20:54:43Z</time>
      </trkpt>
      <trkpt lat="48.97075" lon="7.78218">
        <ele>444</ele>
        <time>2020-03-08T20:54:38Z</time>
      </trkpt>
      <trkpt lat="48.97031" lon="7.7811">
        <ele>442</ele>
        <time>2020-03-08T20:54:31Z</time>
      </trkpt>
      <trkpt lat="48.97009" lon="7.77988">
        <ele>440</ele>
        <time>2020-03-08T20:54:29Z</time>
      </trkpt>
      <trkpt lat="48.96994" lon="7.77863">
        <ele>432</ele>
        <time>2020-03-08T20:54:23Z</time>
      </trkpt>
      <trkpt lat="48.96997" lon="7.77736">
        <ele>422</ele>
        <time>2020-03-08T20:54:12Z</time>
      </trkpt>
      <trkpt lat="48.97029" lon="7.77797">
        <ele>411</ele>
        <time>2020-03-08T20:54:08Z</time>
      </trkpt>
      <trkpt lat="48.97068" lon="7.7791">
        <ele>416</ele>
        <time>2020-03-08T20:53:55Z</time>
      </trkpt>
      <trkpt lat="48.97124" lon="7.78004">
        <ele>419</ele>
        <time>2020-03-08T20:53:44Z</time>
      </trkpt>
      <trkpt lat="48.97181" lon="7.78097">
        <ele>420</ele>
        <time>2020-03-08T20:53:31Z</time>
      </trkpt>
      <trkpt lat="48.97243" lon="7.78182">
        <ele>408</ele>
        <time>2020-03-08T20:53:25Z</time>
      </trkpt>
      <trkpt lat="48.97312" lon="7.78254">
        <ele>398</ele>
        <time>2020-03-08T20:53:05Z</time>
      </trkpt>
      <trkpt lat="48.9738" lon="7.78326">
        <ele>411</ele>
        <time>2020-03-08T20:53:01Z</time>
      </trkpt>
      <trkpt lat="48.97432" lon="7.78419">
        <ele>392</ele>
        <time>2020-03-08T20:52:51Z</time>
      </trkpt>
      <trkpt lat="48.97454" lon="7.78541">
        <ele>398</ele>
        <time>2020-03-08T20:52:45Z</time>
      </trkpt>
      <trkpt lat="48.97435" lon="7.7866">
        <ele>417</ele>
        <time>2020-03-08T20:52:29Z</time>
      </trkpt>
      <trkpt lat="48.97366" lon="7.78728">
        <ele>433</ele>
        <time>2020-03-08T20:52:25Z</time>
      </trkpt>
      <trkpt lat="48.97384" lon="7.78797">
        <ele>435</ele>
        <time>2020-03-08T20:52:22Z</time>
      </trkpt>
      <trkpt lat="48.97438" lon="7.78892">
        <ele>432</ele>
        <time>2020-03-08T20:52:08Z</time>
      </trkpt>
      <trkpt lat="48.97489" lon="7.78993">
        <ele>433</ele>
        <time>2020-03-08T20:52:02Z</time>
      </trkpt>
      <trkpt lat="48.97541" lon="7.78981">
        <ele>425</ele>
        <time>2020-03-08T20:51:44Z</time>
      </trkpt>
      <trkpt lat="48.97593" lon="7.78882">
        <ele>411</ele>
        <time>2020-03-08T20:51:25Z</time>
      </trkpt>
      <trkpt lat="48.97652" lon="7.78886">
        <ele>391</ele>
        <time>2020-03-08T20:51:09Z</time>
      </trkpt>
      <trkpt lat="48.9771" lon="7.78974">
        <ele>375</ele>
        <time>2020-03-08T20:50:51Z</time>
      </trkpt>
      <trkpt lat="48.97701" lon="7.79087">
        <ele>385</ele>
        <time>2020-03-08T20:50:49Z</time>
      </trkpt>
      <trkpt lat="48.97644" lon="7.79177">
        <ele>398</ele>
        <time>2020-03-08T20:50:31Z</time>
      </trkpt>
      <trkpt lat="48.97581" lon="7.79259">
        <ele>401</ele>
        <time>2020-03-08T20:50:14Z</time>
      </trkpt>
      <trkpt lat="48.97645" lon="7.79236">
        <ele>389</ele>
        <time>2020-03-08T20:50:04Z</time>
      </trkpt>
      <trkpt lat="48.97705" lon="7.79214">
        <ele>389.3</ele>
      </trkpt>
      <trkpt lat="48.9774" lon="7.79199">
        <ele>386.4</ele>
      </trkpt>
      <trkpt lat="48.97764" lon="7.79174">
        <ele>375.9</ele>
      </trkpt>
      <trkpt lat="48.97787" lon="7.7912">
        <ele>377.2</ele>
      </trkpt>
      <trkpt lat="48.9781" lon="7.79046">
        <ele>379.8</ele>
      </trkpt>
      <trkpt lat="48.97821" lon="7.78974">
        <ele>377.9</ele>
      </trkpt>
      <trkpt lat="48.97818" lon="7.78856">
        <ele>367.8</ele>
      </trkpt>
      <trkpt lat="48.97826" lon="7.78836">
        <ele>359.7</ele>
      </trkpt>
      <trkpt lat="48.97865" lon="7.78836">
        <ele>346.8</ele>
      </trkpt>
      <trkpt lat="48.97891" lon="7.78849">
        <ele>341.4</ele>
      </trkpt>
      <trkpt lat="48.9792" lon="7.78883">
        <ele>327.8</ele>
      </trkpt>
      <trkpt lat="48.97944" lon="7.78947">
        <ele>331.5</ele>
      </trkpt>
      <trkpt lat="48.97955" lon="7.79021">
        <ele>332.7</ele>
      </trkpt>
      <trkpt lat="48.97942" lon="7.79073">
        <ele>335.3</ele>
      </trkpt>
      <trkpt lat="48.97873" lon="7.79186">
        <ele>350.9</ele>
      </trkpt>
      <trkpt lat="48.97912" lon="7.79253">
        <ele>350.7</ele>
      </trkpt>
      <trkpt lat="48.97949" lon="7.79231">
        <ele>342.6</ele>
      </trkpt>
      <trkpt lat="48.98004" lon="7.79184">
        <ele>329.8</ele>
      </trkpt>
      <trkpt lat="48.97939" lon="7.79226">
        <ele>341</ele>
        <time>2020-03-08T20:48:27Z</time>
      </trkpt>
      <trkpt lat="48.98016" lon="7.79183">
        <ele>320</ele>
        <time>2020-03-08T20:48:13Z</time>
      </trkpt>
      <trkpt lat="48.98086" lon="7.79238">
        <ele>326</ele>
        <time>2020-03-08T20:48:05Z</time>
      </trkpt>
      <trkpt lat="48.98062" lon="7.79278">
        <ele>334</ele>
        <time>2020-03-08T20:47:54Z</time>
      </trkpt>
      <trkpt lat="48.97985" lon="7.79319">
        <ele>359</ele>
        <time>2020-03-08T20:47:38Z</time>
      </trkpt>
      <trkpt lat="48.97934" lon="7.79416">
        <ele>325</ele>
        <time>2020-03-08T20:47:26Z</time>
      </trkpt>
      <trkpt lat="48.97884" lon="7.79517">
        <ele>383</ele>
        <time>2020-03-08T20:47:10Z</time>
      </trkpt>
      <trkpt lat="48.97845" lon="7.79598">
        <ele>393</ele>
        <time>2020-03-08T20:46:59Z</time>
      </trkpt>
      <trkpt lat="48.97928" lon="7.79583">
        <ele>399</ele>
        <time>2020-03-08T20:46:39Z</time>
      </trkpt>
      <trkpt lat="48.98011" lon="7.79568">
        <ele>391</ele>
        <time>2020-03-08T20:46:26Z</time>
      </trkpt>
      <trkpt lat="48.9796" lon="7.79619">
        <ele>408</ele>
        <time>2020-03-08T20:46:15Z</time>
      </trkpt>
      <trkpt lat="48.97885" lon="7.79668">
        <ele>409</ele>
        <time>2020-03-08T20:46:06Z</time>
      </trkpt>
      <trkpt lat="48.97815" lon="7.79737">
        <ele>415</ele>
        <time>2020-03-08T20:46:04Z</time>
      </trkpt>
      <trkpt lat="48.97766" lon="7.79822">
        <ele>426</ele>
        <time>2020-03-08T20:45:52Z</time>
      </trkpt>
      <trkpt lat="48.97771" lon="7.79949">
        <ele>453</ele>
        <time>2020-03-08T20:45:36Z</time>
      </trkpt>
      <trkpt lat="48.97811" lon="7.79898">
        <ele>447</ele>
        <time>2020-03-08T20:45:20Z</time>
      </trkpt>
      <trkpt lat="48.97876" lon="7.7982">
        <ele>435</ele>
        <time>2020-03-08T20:45:09Z</time>
      </trkpt>
      <trkpt lat="48.97952" lon="7.79791">
        <ele>435</ele>
        <time>2020-03-08T20:44:52Z</time>
      </trkpt>
      <trkpt lat="48.98029" lon="7.79831">
        <ele>436</ele>
        <time>2020-03-08T20:44:32Z</time>
      </trkpt>
      <trkpt lat="48.981" lon="7.79894">
        <ele>424</ele>
        <time>2020-03-08T20:44:15Z</time>
      </trkpt>
      <trkpt lat="48.98169" lon="7.79955">
        <ele>412</ele>
        <time>2020-03-08T20:44:03Z</time>
      </trkpt>
      <trkpt lat="48.98221" lon="7.80054">
        <ele>404</ele>
        <time>2020-03-08T20:43:48Z</time>
      </trkpt>
      <trkpt lat="48.98285" lon="7.80137">
        <ele>397</ele>
        <time>2020-03-08T20:43:29Z</time>
      </trkpt>
      <trkpt lat="48.98331" lon="7.80242">
        <ele>407</ele>
        <time>2020-03-08T20:43:26Z</time>
      </trkpt>
      <trkpt lat="48.98376" lon="7.80349">
        <ele>416</ele>
        <time>2020-03-08T20:43:07Z</time>
      </trkpt>
      <trkpt lat="48.98426" lon="7.80451">
        <ele>363</ele>
        <time>2020-03-08T20:42:54Z</time>
      </trkpt>
      <trkpt lat="48.98474" lon="7.80556">
        <ele>399</ele>
        <time>2020-03-08T20:42:37Z</time>
      </trkpt>
      <trkpt lat="48.98526" lon="7.80653">
        <ele>394</ele>
        <time>2020-03-08T20:42:28Z</time>
      </trkpt>
      <trkpt lat="48.98591" lon="7.80732">
        <ele>383</ele>
        <time>2020-03-08T20:42:24Z</time>
      </trkpt>
      <trkpt lat="48.98638" lon="7.80835">
        <ele>377</ele>
        <time>2020-03-08T20:42:14Z</time>
      </trkpt>
      <trkpt lat="48.98679" lon="7.80943">
        <ele>368</ele>
        <time>2020-03-08T20:42:00Z</time>
      </trkpt>
      <trkpt lat="48.98722" lon="7.8105">
        <ele>384</ele>
        <time>2020-03-08T20:41:45Z</time>
      </trkpt>
      <trkpt lat="48.98755" lon="7.81167">
        <ele>394</ele>
        <time>2020-03-08T20:41:33Z</time>
      </trkpt>
      <trkpt lat="48.9878" lon="7.81287">
        <ele>359</ele>
        <time>2020-03-08T20:41:29Z</time>
      </trkpt>
      <trkpt lat="48.98771" lon="7.81407">
        <ele>382</ele>
        <time>2020-03-08T20:41:16Z</time>
      </trkpt>
      <trkpt lat="48.98719" lon="7.81395">
        <ele>393</ele>
        <time>2020-03-08T20:41:07Z</time>
      </trkpt>
      <trkpt lat="48.98671" lon="7.81354">
        <ele>404</ele>
        <time>2020-03-08T20:40:51Z</time>
      </trkpt>
      <trkpt lat="48.98637" lon="7.8147">
        <ele>413</ele>
        <time>2020-03-08T20:40:41Z</time>
      </trkpt>
      <trkpt lat="48.98594" lon="7.81578">
        <ele>423</ele>
        <time>2020-03-08T20:40:36Z</time>
      </trkpt>
      <trkpt lat="48.98536" lon="7.81647">
        <ele>436</ele>
        <time>2020-03-08T20:40:18Z</time>
      </trkpt>
      <trkpt lat="48.9855" lon="7.81613">
        <ele>436</ele>
        <time>2020-03-08T20:40:15Z</time>
      </trkpt>
      <trkpt lat="48.98575" lon="7.81548">
        <ele>424</ele>
        <time>2020-03-08T20:39:55Z</time>
      </trkpt>
      <trkpt lat="48.98584" lon="7.81524">
        <ele>427</ele>
        <time>2020-03-08T20:39:37Z</time>
      </trkpt>
      <trkpt lat="48.98573" lon="7.81481">
        <ele>429</ele>
        <time>2020-03-08T20:39:34Z</time>
      </trkpt>
      <trkpt lat="48.98555" lon="7.8141">
        <ele>434</ele>
        <time>2020-03-08T20:39:18Z</time>
      </trkpt>
      <trkpt lat="48.98523" lon="7.81357">
        <ele>442</ele>
        <time>2020-03-08T20:38:59Z</time>
      </trkpt>
      <trkpt lat="48.98436" lon="7.81297">
        <ele>468</ele>
        <time>2020-03-08T20:38:48Z</time>
      </trkpt>
      <trkpt lat="48.98391" lon="7.81274">
        <ele>479</ele>
        <time>2020-03-08T20:38:28Z</time>
      </trkpt>
      <trkpt lat="48.9842" lon="7.81348">
        <ele>473</ele>
        <time>2020-03-08T20:38:17Z</time>
      </trkpt>
      <trkpt lat="48.98447" lon="7.81424">
        <ele>466</ele>
        <time>2020-03-08T20:38:00Z</time>
      </trkpt>
      <trkpt lat="48.98373" lon="7.81485">
        <ele>483</ele>
        <time>2020-03-08T20:37:56Z</time>
      </trkpt>
      <trkpt lat="48.983" lon="7.81545">
        <ele>479</ele>
        <time>2020-03-08T20:37:51Z</time>
      </trkpt>
      <trkpt lat="48.98227" lon="7.81606">
        <ele>478</ele>
        <time>2020-03-08T20:37:31Z</time>
      </trkpt>
      <trkpt lat="48.98169" lon="7.81693">
        <ele>475</ele>
        <time>2020-03-08T20:37:22Z</time>
      </trkpt>
      <trkpt lat="48.98124" lon="7.81801">
        <ele>471</ele>
        <time>2020-03-08T20:37:13Z</time>
      </trkpt>
      <trkpt lat="48.98086" lon="7.81913">
        <ele>467</ele>
        <time>2020-03-08T20:37:02Z</time>
      </trkpt>
      <trkpt lat="48.98056" lon="7.82032">
        <ele>462</ele>
        <time>2020-03-08T20:36:49Z</time>
      </trkpt>
      <trkpt lat="48.9804" lon="7.82156">
        <ele>457</ele>
        <time>2020-03-08T20:36:46Z</time>
      </trkpt>
      <trkpt lat="48.98047" lon="7.82282">
        <ele>458</ele>
        <time>2020-03-08T20:36:27Z</time>
      </trkpt>
      <trkpt lat="48.98062" lon="7.82407">
        <ele>465</ele>
        <time>2020-03-08T20:36:23Z</time>
      </trkpt>
      <trkpt lat="48.98123" lon="7.8249">
        <ele>465</ele>
        <time>2020-03-08T20:36:18Z</time>
      </trkpt>
      <trkpt lat="48.98189" lon="7.82567">
        <ele>466</ele>
        <time>2020-03-08T20:36:09Z</time>
      </trkpt>
      <trkpt lat="48.98255" lon="7.82645">
        <ele>472</ele>
        <time>2020-03-08T20:35:58Z</time>
      </trkpt>
      <trkpt lat="48.98322" lon="7.82722">
        <ele>469</ele>
        <time>2020-03-08T20:35:48Z</time>
      </trkpt>
      <trkpt lat="48.98399" lon="7.82706">
        <ele>468</ele>
        <time>2020-03-08T20:35:29Z</time>
      </trkpt>
      <trkpt lat="48.98478" lon="7.82668">
        <ele>470</ele>
        <time>2020-03-08T20:35:20Z</time>
      </trkpt>
      <trkpt lat="48.98553" lon="7.82713">
        <ele>469</ele>
        <time>2020-03-08T20:35:13Z</time>
      </trkpt>
      <trkpt lat="48.98636" lon="7.82707">
        <ele>462</ele>
        <time>2020-03-08T20:35:03Z</time>
      </trkpt>
      <trkpt lat="48.98695" lon="7.82794">
        <ele>457</ele>
        <time>2020-03-08T20:34:52Z</time>
      </trkpt>
      <trkpt lat="48.98776" lon="7.82826">
        <ele>451</ele>
        <time>2020-03-08T20:34:36Z</time>
      </trkpt>
      <trkpt lat="48.98859" lon="7.82843">
        <ele>428</ele>
        <time>2020-03-08T20:34:18Z</time>
      </trkpt>
      <trkpt lat="48.98938" lon="7.82878">
        <ele>408</ele>
        <time>2020-03-08T20:34:15Z</time>
      </trkpt>
      <trkpt lat="48.98999" lon="7.82948">
        <ele>396</ele>
        <time>2020-03-08T20:34:02Z</time>
      </trkpt>
      <trkpt lat="48.99015" lon="7.83069">
        <ele>396</ele>
        <time>2020-03-08T20:33:49Z</time>
      </trkpt>
      <trkpt lat="48.99005" lon="7.83195">
        <ele>400</ele>
        <time>2020-03-08T20:33:40Z</time>
      </trkpt>
      <trkpt lat="48.99032" lon="7.83289">
        <ele>398</ele>
        <time>2020-03-08T20:33:27Z</time>
      </trkpt>
      <trkpt lat="48.99112" lon="7.83323">
        <ele>392</ele>
        <time>2020-03-08T20:33:24Z</time>
      </trkpt>
      <trkpt lat="48.99187" lon="7.83366">
        <ele>376</ele>
        <time>2020-03-08T20:33:13Z</time>
      </trkpt>
      <trkpt lat="48.99213" lon="7.83422">
        <ele>407.8</ele>
      </trkpt>
      <trkpt lat="48.99213" lon="7.83498">
        <ele>410.6</ele>
      </trkpt>
      <trkpt lat="48.99227" lon="7.83646">
        <ele>413.6</ele>
      </trkpt>
      <trkpt lat="48.9924" lon="7.83865">
        <ele>393.6</ele>
      </trkpt>
      <trkpt lat="48.99236" lon="7.84005">
        <ele>400.1</ele>
      </trkpt>
      <trkpt lat="48.99194" lon="7.83886">
        <ele>397</ele>
      </trkpt>
      <trkpt lat="48.9917" lon="7.83778">
        <ele>405.8</ele>
      </trkpt>
      <trkpt lat="48.99142" lon="7.83672">
        <ele>425.9</ele>
      </trkpt>
      <trkpt lat="48.99108" lon="7.83916">
        <ele>421.1</ele>
      </trkpt>
      <trkpt lat="48.99083" lon="7.84098">
        <ele>437.1</ele>
      </trkpt>
      <trkpt lat="48.99052" lon="7.84103">
        <ele>449.8</ele>
      </trkpt>
      <trkpt lat="48.99047" lon="7.84037">
        <ele>450.5</ele>
      </trkpt>
      <trkpt lat="48.99038" lon="7.83952">
        <ele>446</ele>
      </trkpt>
      <trkpt lat="48.99018" lon="7.83892">
        <ele>447</ele>
      </trkpt>
      <trkpt lat="48.98973" lon="7.83871">
        <ele>463</ele>
      </trkpt>
      <trkpt lat="48.98971" lon="7.83916">
        <ele>462.2</ele>
      </trkpt>
      <trkpt lat="48.98962" lon="7.83982">
        <ele>465.9</ele>
      </trkpt>
      <trkpt lat="48.98943" lon="7.84071">
        <ele>467.5</ele>
      </trkpt>
      <trkpt lat="48.98936" lon="7.84127">
        <ele>463.9</ele>
      </trkpt>
      <trkpt lat="48.98908" lon="7.8414">
        <ele>465.2</ele>
      </trkpt>
      <trkpt lat="48.9889" lon="7.84139">
        <ele>433</ele>
        <time>2020-03-08T20:28:57Z</time>
      </trkpt>
      <trkpt lat="48.98833" lon="7.8415">
        <ele>433</ele>
        <time>2020-03-08T20:28:40Z</time>
      </trkpt>
      <trkpt lat="48.98783" lon="7.84108">
        <ele>437</ele>
        <time>2020-03-08T20:28:22Z</time>
      </trkpt>
      <trkpt lat="48.98733" lon="7.84064">
        <ele>442</ele>
        <time>2020-03-08T20:28:09Z</time>
      </trkpt>
      <trkpt lat="48.98684" lon="7.8402">
        <ele>442</ele>
        <time>2020-03-08T20:28:03Z</time>
      </trkpt>
      <trkpt lat="48.98609" lon="7.83942">
        <ele>438</ele>
        <time>2020-03-08T20:27:46Z</time>
      </trkpt>
      <trkpt lat="48.98525" lon="7.83861">
        <ele>444.5</ele>
      </trkpt>
      <trkpt lat="48.98515" lon="7.83793">
        <ele>454.8</ele>
      </trkpt>
      <trkpt lat="48.98493" lon="7.83737">
        <ele>449.5</ele>
      </trkpt>
      <trkpt lat="48.98466" lon="7.83674">
        <ele>451.5</ele>
      </trkpt>
      <trkpt lat="48.98439" lon="7.83606">
        <ele>464.5</ele>
      </trkpt>
      <trkpt lat="48.98314" lon="7.83442">
        <ele>460.6</ele>
      </trkpt>
      <trkpt lat="48.98286" lon="7.8341">
        <ele>455</ele>
        <time>2020-03-08T20:26:24Z</time>
      </trkpt>
      <trkpt lat="48.98235" lon="7.83342">
        <ele>454</ele>
        <time>2020-03-08T20:26:15Z</time>
      </trkpt>
      <trkpt lat="48.98177" lon="7.83264">
        <ele>449</ele>
        <time>2020-03-08T20:26:03Z</time>
      </trkpt>
      <trkpt lat="48.98126" lon="7.83203">
        <ele>444</ele>
        <time>2020-03-08T20:25:47Z</time>
      </trkpt>
      <trkpt lat="48.98075" lon="7.83141">
        <ele>444</ele>
        <time>2020-03-08T20:25:45Z</time>
      </trkpt>
      <trkpt lat="48.98023" lon="7.82999">
        <ele>461</ele>
        <time>2020-03-08T20:25:33Z</time>
      </trkpt>
      <trkpt lat="48.97973" lon="7.82843">
        <ele>472</ele>
        <time>2020-03-08T20:25:30Z</time>
      </trkpt>
      <trkpt lat="48.97925" lon="7.82779">
        <ele>465</ele>
        <time>2020-03-08T20:25:23Z</time>
      </trkpt>
      <trkpt lat="48.97877" lon="7.82715">
        <ele>456</ele>
        <time>2020-03-08T20:25:10Z</time>
      </trkpt>
      <trkpt lat="48.9784" lon="7.82641">
        <ele>447</ele>
        <time>2020-03-08T20:24:52Z</time>
      </trkpt>
      <trkpt lat="48.97874" lon="7.82599">
        <ele>480.3</ele>
      </trkpt>
      <trkpt lat="48.97913" lon="7.82568">
        <ele>477</ele>
      </trkpt>
      <trkpt lat="48.98016" lon="7.825">
        <ele>473.5</ele>
      </trkpt>
      <trkpt lat="48.97983" lon="7.82325">
        <ele>466.5</ele>
      </trkpt>
      <trkpt lat="48.97973" lon="7.82279">
        <ele>465.8</ele>
      </trkpt>
      <trkpt lat="48.97954" lon="7.82266">
        <ele>465.1</ele>
      </trkpt>
      <trkpt lat="48.97927" lon="7.82253">
        <ele>463.8</ele>
      </trkpt>
      <trkpt lat="48.97937" lon="7.82213">
        <ele>466.1</ele>
      </trkpt>
      <trkpt lat="48.97883" lon="7.82222">
        <ele>460.4</ele>
      </trkpt>
      <trkpt lat="48.97851" lon="7.81681">
        <ele>453.7</ele>
      </trkpt>
      <trkpt lat="48.97806" lon="7.81741">
        <ele>440.5</ele>
      </trkpt>
      <trkpt lat="48.97801" lon="7.81766">
        <ele>439.6</ele>
      </trkpt>
      <trkpt lat="48.97761" lon="7.81814">
        <ele>433.3</ele>
      </trkpt>
      <trkpt lat="48.97711" lon="7.81889">
        <ele>417.2</ele>
      </trkpt>
      <trkpt lat="48.97681" lon="7.81934">
        <ele>416.3</ele>
      </trkpt>
      <trkpt lat="48.97666" lon="7.81978">
        <ele>405.2</ele>
      </trkpt>
      <trkpt lat="48.9766" lon="7.8205">
        <ele>405.3</ele>
      </trkpt>
      <trkpt lat="48.97654" lon="7.82058">
        <ele>405.2</ele>
      </trkpt>
      <trkpt lat="48.97638" lon="7.82033">
        <ele>402.1</ele>
      </trkpt>
      <trkpt lat="48.97631" lon="7.81998">
        <ele>399.3</ele>
      </trkpt>
      <trkpt lat="48.97653" lon="7.81912">
        <ele>399.8</ele>
      </trkpt>
      <trkpt lat="48.97675" lon="7.81842">
        <ele>405.4</ele>
      </trkpt>
      <trkpt lat="48.97677" lon="7.8179">
        <ele>409.3</ele>
      </trkpt>
      <trkpt lat="48.97662" lon="7.81777">
        <ele>398.2</ele>
      </trkpt>
      <trkpt lat="48.97638" lon="7.81761">
        <ele>397.6</ele>
      </trkpt>
      <trkpt lat="48.97581" lon="7.8178">
        <ele>390.1</ele>
      </trkpt>
      <trkpt lat="48.97569" lon="7.8179">
        <ele>381</ele>
        <time>2020-03-08T20:21:52Z</time>
      </trkpt>
      <trkpt lat="48.97489" lon="7.81821">
        <ele>360</ele>
        <time>2020-03-08T20:21:42Z</time>
      </trkpt>
      <trkpt lat="48.97414" lon="7.81876">
        <ele>343</ele>
        <time>2020-03-08T20:21:26Z</time>
      </trkpt>
      <trkpt lat="48.97333" lon="7.81854">
        <ele>331</ele>
        <time>2020-03-08T20:21:07Z</time>
      </trkpt>
      <trkpt lat="48.97281" lon="7.81754">
        <ele>323</ele>
        <time>2020-03-08T20:20:50Z</time>
      </trkpt>
      <trkpt lat="48.9723" lon="7.81654">
        <ele>337</ele>
        <time>2020-03-08T20:20:35Z</time>
      </trkpt>
      <trkpt lat="48.97178" lon="7.81554">
        <ele>332</ele>
        <time>2020-03-08T20:20:31Z</time>
      </trkpt>
      <trkpt lat="48.97125" lon="7.81456">
        <ele>325</ele>
        <time>2020-03-08T20:20:18Z</time>
      </trkpt>
      <trkpt lat="48.97074" lon="7.81354">
        <ele>320</ele>
        <time>2020-03-08T20:20:03Z</time>
      </trkpt>
      <trkpt lat="48.97023" lon="7.81254">
        <ele>325</ele>
        <time>2020-03-08T20:19:46Z</time>
      </trkpt>
      <trkpt lat="48.96969" lon="7.81157">
        <ele>326</ele>
        <time>2020-03-08T20:19:32Z</time>
      </trkpt>
      <trkpt lat="48.9691" lon="7.81067">
        <ele>340</ele>
        <time>2020-03-08T20:19:21Z</time>
      </trkpt>
      <trkpt lat="48.96839" lon="7.81012">
        <ele>311</ele>
        <time>2020-03-08T20:19:12Z</time>
      </trkpt>
      <trkpt lat="48.9676" lon="7.80979">
        <ele>287</ele>
        <time>2020-03-08T20:19:07Z</time>
      </trkpt>
      <trkpt lat="48.96688" lon="7.80914">
        <ele>284</ele>
        <time>2020-03-08T20:18:48Z</time>
      </trkpt>
      <trkpt lat="48.96608" lon="7.80887">
        <ele>278</ele>
        <time>2020-03-08T20:18:36Z</time>
      </trkpt>
      <trkpt lat="48.96525" lon="7.8089">
        <ele>269</ele>
        <time>2020-03-08T20:18:29Z</time>
      </trkpt>
      <trkpt lat="48.96463" lon="7.80915">
        <ele>262</ele>
        <time>2020-03-08T20:18:21Z</time>
      </trkpt>
      <trkpt lat="48.96497" lon="7.81032">
        <ele>264</ele>
        <time>2020-03-08T20:18:08Z</time>
      </trkpt>
      <trkpt lat="48.96444" lon="7.81111">
        <ele>255</ele>
        <time>2020-03-08T20:18:04Z</time>
      </trkpt>
      <trkpt lat="48.96421" lon="7.8123">
        <ele>249</ele>
        <time>2020-03-08T20:17:59Z</time>
      </trkpt>
      <trkpt lat="48.96378" lon="7.81338">
        <ele>250</ele>
        <time>2020-03-08T20:17:42Z</time>
      </trkpt>
      <trkpt lat="48.9631" lon="7.81407">
        <ele>233</ele>
        <time>2020-03-08T20:17:38Z</time>
      </trkpt>
      <trkpt lat="48.96231" lon="7.81392">
        <ele>231</ele>
        <time>2020-03-08T20:17:34Z</time>
      </trkpt>
      <trkpt lat="48.96155" lon="7.81432">
        <ele>228</ele>
        <time>2020-03-08T20:17:22Z</time>
      </trkpt>
      <trkpt lat="48.96074" lon="7.81446">
        <ele>221</ele>
        <time>2020-03-08T20:17:03Z</time>
      </trkpt>
      <trkpt lat="48.96" lon="7.81499">
        <ele>217</ele>
        <time>2020-03-08T20:16:49Z</time>
      </trkpt>
      <trkpt lat="48.95922" lon="7.81474">
        <ele>215</ele>
        <time>2020-03-08T20:16:33Z</time>
      </trkpt>
      <trkpt lat="48.95842" lon="7.81502">
        <ele>210</ele>
        <time>2020-03-08T20:16:25Z</time>
      </trkpt>
      <trkpt lat="48.95826" lon="7.81584">
        <ele>206</ele>
        <time>2020-03-08T20:16:08Z</time>
      </trkpt>
      <trkpt lat="48.95816" lon="7.81672">
        <ele>212</ele>
        <time>2020-03-08T20:15:55Z</time>
      </trkpt>
      <trkpt lat="48.95784" lon="7.81788">
        <ele>206</ele>
        <time>2020-03-08T20:15:48Z</time>
      </trkpt>
      <trkpt lat="48.9582" lon="7.81877">
        <ele>208</ele>
        <time>2020-03-08T20:15:30Z</time>
      </trkpt>
      <trkpt lat="48.95893" lon="7.81939">
        <ele>214</ele>
        <time>2020-03-08T20:15:22Z</time>
      </trkpt>
      <trkpt lat="48.95966" lon="7.82002">
        <ele>219</ele>
        <time>2020-03-08T20:15:06Z</time>
      </trkpt>
      <trkpt lat="48.96044" lon="7.82032">
        <ele>222</ele>
        <time>2020-03-08T20:14:58Z</time>
      </trkpt>
      <trkpt lat="48.96077" lon="7.82075">
        <ele>223</ele>
        <time>2020-03-08T20:14:45Z</time>
      </trkpt>
      <trkpt lat="48.96053" lon="7.82193">
        <ele>222</ele>
        <time>2020-03-08T20:14:37Z</time>
      </trkpt>
      <trkpt lat="48.9607" lon="7.82306">
        <ele>222</ele>
        <time>2020-03-08T20:14:32Z</time>
      </trkpt>
      <trkpt lat="48.96119" lon="7.82409">
        <ele>225</ele>
        <time>2020-03-08T20:14:20Z</time>
      </trkpt>
      <trkpt lat="48.96168" lon="7.82512">
        <ele>226</ele>
        <time>2020-03-08T20:14:12Z</time>
      </trkpt>
      <trkpt lat="48.96216" lon="7.82616">
        <ele>227</ele>
        <time>2020-03-08T20:14:08Z</time>
      </trkpt>
      <trkpt lat="48.96267" lon="7.82717">
        <ele>230</ele>
        <time>2020-03-08T20:14:04Z</time>
      </trkpt>
      <trkpt lat="48.9634" lon="7.82778">
        <ele>236</ele>
        <time>2020-03-08T20:13:51Z</time>
      </trkpt>
      <trkpt lat="48.96414" lon="7.82834">
        <ele>240</ele>
        <time>2020-03-08T20:13:41Z</time>
      </trkpt>
      <trkpt lat="48.96496" lon="7.82857">
        <ele>246</ele>
        <time>2020-03-08T20:13:39Z</time>
      </trkpt>
      <trkpt lat="48.96567" lon="7.8292">
        <ele>245</ele>
        <time>2020-03-08T20:13:24Z</time>
      </trkpt>
      <trkpt lat="48.96639" lon="7.82975">
        <ele>244</ele>
        <time>2020-03-08T20:13:17Z</time>
      </trkpt>
      <trkpt lat="48.96722" lon="7.82985">
        <ele>244</ele>
        <time>2020-03-08T20:13:11Z</time>
      </trkpt>
      <trkpt lat="48.96805" lon="7.82976">
        <ele>246</ele>
        <time>2020-03-08T20:12:56Z</time>
      </trkpt>
      <trkpt lat="48.96886" lon="7.8295">
        <ele>243</ele>
        <time>2020-03-08T20:12:40Z</time>
      </trkpt>
      <trkpt lat="48.96855" lon="7.83043">
        <ele>240</ele>
        <time>2020-03-08T20:12:21Z</time>
      </trkpt>
      <trkpt lat="48.96811" lon="7.83151">
        <ele>237</ele>
        <time>2020-03-08T20:12:15Z</time>
      </trkpt>
      <trkpt lat="48.96759" lon="7.83242">
        <ele>232</ele>
        <time>2020-03-08T20:12:08Z</time>
      </trkpt>
      <trkpt lat="48.96677" lon="7.83269">
        <ele>230</ele>
        <time>2020-03-08T20:11:50Z</time>
      </trkpt>
      <trkpt lat="48.96598" lon="7.83307">
        <ele>228</ele>
        <time>2020-03-08T20:11:35Z</time>
      </trkpt>
      <trkpt lat="48.9652" lon="7.83355">
        <ele>226</ele>
        <time>2020-03-08T20:11:28Z</time>
      </trkpt>
      <trkpt lat="48.96443" lon="7.83405">
        <ele>224</ele>
        <time>2020-03-08T20:11:11Z</time>
      </trkpt>
      <trkpt lat="48.96369" lon="7.83463">
        <ele>223</ele>
        <time>2020-03-08T20:10:52Z</time>
      </trkpt>
      <trkpt lat="48.96298" lon="7.83529">
        <ele>219</ele>
        <time>2020-03-08T20:10:37Z</time>
      </trkpt>
      <trkpt lat="48.96226" lon="7.83593">
        <ele>216</ele>
        <time>2020-03-08T20:10:18Z</time>
      </trkpt>
      <trkpt lat="48.96151" lon="7.83638">
        <ele>213</ele>
        <time>2020-03-08T20:10:15Z</time>
      </trkpt>
      <trkpt lat="48.96185" lon="7.83755">
        <ele>211</ele>
        <time>2020-03-08T20:09:58Z</time>
      </trkpt>
      <trkpt lat="48.96167" lon="7.83867">
        <ele>208</ele>
        <time>2020-03-08T20:09:45Z</time>
      </trkpt>
      <trkpt lat="48.96124" lon="7.83976">
        <ele>208</ele>
        <time>2020-03-08T20:09:36Z</time>
      </trkpt>
      <trkpt lat="48.96081" lon="7.84085">
        <ele>197</ele>
        <time>2020-03-08T20:09:25Z</time>
      </trkpt>
      <trkpt lat="48.96037" lon="7.84191">
        <ele>202</ele>
        <time>2020-03-08T20:09:18Z</time>
      </trkpt>
      <trkpt lat="48.95959" lon="7.84238">
        <ele>199</ele>
        <time>2020-03-08T20:09:06Z</time>
      </trkpt>
      <trkpt lat="48.95879" lon="7.84266">
        <ele>199</ele>
        <time>2020-03-08T20:08:53Z</time>
      </trkpt>
      <trkpt lat="48.95796" lon="7.84254">
        <ele>201</ele>
        <time>2020-03-08T20:08:51Z</time>
      </trkpt>
      <trkpt lat="48.95718" lon="7.8421">
        <ele>203</ele>
        <time>2020-03-08T20:08:43Z</time>
      </trkpt>
      <trkpt lat="48.9564" lon="7.84167">
        <ele>206</ele>
        <time>2020-03-08T20:08:34Z</time>
      </trkpt>
      <trkpt lat="48.95557" lon="7.84158">
        <ele>206</ele>
        <time>2020-03-08T20:08:31Z</time>
      </trkpt>
      <trkpt lat="48.95474" lon="7.84143">
        <ele>207</ele>
        <time>2020-03-08T20:08:26Z</time>
      </trkpt>
      <trkpt lat="48.95392" lon="7.84128">
        <ele>206</ele>
        <time>2020-03-08T20:08:09Z</time>
      </trkpt>
      <trkpt lat="48.95327" lon="7.84207">
        <ele>203</ele>
        <time>2020-03-08T20:07:50Z</time>
      </trkpt>
      <trkpt lat="48.95281" lon="7.84313">
        <ele>202</ele>
        <time>2020-03-08T20:07:46Z</time>
      </trkpt>
      <trkpt lat="48.95236" lon="7.84421">
        <ele>200</ele>
        <time>2020-03-08T20:07:31Z</time>
      </trkpt>
      <trkpt lat="48.95187" lon="7.84524">
        <ele>199</ele>
        <time>2020-03-08T20:07:28Z</time>
      </trkpt>
      <trkpt lat="48.95138" lon="7.84627">
        <ele>195</ele>
        <time>2020-03-08T20:07:12Z</time>
      </trkpt>
      <trkpt lat="48.9508" lon="7.84716">
        <ele>195</ele>
        <time>2020-03-08T20:06:53Z</time>
      </trkpt>
      <trkpt lat="48.95014" lon="7.84794">
        <ele>192</ele>
        <time>2020-03-08T20:06:49Z</time>
      </trkpt>
      <trkpt lat="48.94953" lon="7.84879">
        <ele>192</ele>
        <time>2020-03-08T20:06:38Z</time>
      </trkpt>
      <trkpt lat="48.94906" lon="7.84984">
        <ele>194</ele>
        <time>2020-03-08T20:06:34Z</time>
      </trkpt>
      <trkpt lat="48.94858" lon="7.85089">
        <ele>192</ele>
        <time>2020-03-08T20:06:27Z</time>
      </trkpt>
      <trkpt lat="48.94811" lon="7.85193">
        <ele>191</ele>
        <time>2020-03-08T20:06:14Z</time>
      </trkpt>
      <trkpt lat="48.94757" lon="7.85291">
        <ele>192</ele>
        <time>2020-03-08T20:06:02Z</time>
      </trkpt>
      <trkpt lat="48.94702" lon="7.85387">
        <ele>191</ele>
        <time>2020-03-08T20:05:42Z</time>
      </trkpt>
      <trkpt lat="48.94647" lon="7.85482">
        <ele>190</ele>
        <time>2020-03-08T20:05:32Z</time>
      </trkpt>
      <trkpt lat="48.94591" lon="7.85577">
        <ele>190</ele>
        <time>2020-03-08T20:05:16Z</time>
      </trkpt>
      <trkpt lat="48.94522" lon="7.85644">
        <ele>193</ele>
        <time>2020-03-08T20:05:03Z</time>
      </trkpt>
      <trkpt lat="48.94442" lon="7.85675">
        <ele>198</ele>
        <time>2020-03-08T20:04:47Z</time>
      </trkpt>
      <trkpt lat="48.94393" lon="7.85741">
        <ele>199</ele>
        <time>2020-03-08T20:04:29Z</time>
      </trkpt>
      <trkpt lat="48.9439" lon="7.85868">
        <ele>197</ele>
        <time>2020-03-08T20:04:26Z</time>
      </trkpt>
      <trkpt lat="48.94387" lon="7.85995">
        <ele>199</ele>
        <time>2020-03-08T20:04:19Z</time>
      </trkpt>
      <trkpt lat="48.94384" lon="7.86122">
        <ele>192</ele>
        <time>2020-03-08T20:04:08Z</time>
      </trkpt>
      <trkpt lat="48.9438" lon="7.86249">
        <ele>189</ele>
        <time>2020-03-08T20:04:05Z</time>
      </trkpt>
      <trkpt lat="48.94377" lon="7.86376">
        <ele>186</ele>
        <time>2020-03-08T20:03:57Z</time>
      </trkpt>
      <trkpt lat="48.94373" lon="7.86503">
        <ele>182</ele>
        <time>2020-03-08T20:03:39Z</time>
      </trkpt>
      <trkpt lat="48.94347" lon="7.86619">
        <ele>178</ele>
        <time>2020-03-08T20:03:19Z</time>
      </trkpt>
      <trkpt lat="48.943" lon="7.86724">
        <ele>177</ele>
        <time>2020-03-08T20:03:17Z</time>
      </trkpt>
      <trkpt lat="48.94253" lon="7.86829">
        <ele>177</ele>
        <time>2020-03-08T20:03:15Z</time>
      </trkpt>
      <trkpt lat="48.94206" lon="7.86934">
        <ele>174</ele>
        <time>2020-03-08T20:03:03Z</time>
      </trkpt>
      <trkpt lat="48.94153" lon="7.87032">
        <ele>178</ele>
        <time>2020-03-08T20:02:58Z</time>
      </trkpt>
      <trkpt lat="48.94098" lon="7.87128">
        <ele>177</ele>
        <time>2020-03-08T20:02:48Z</time>
      </trkpt>
      <trkpt lat="48.9404" lon="7.8722">
        <ele>172</ele>
        <time>2020-03-08T20:02:38Z</time>
      </trkpt>
      <trkpt lat="48.9399" lon="7.87319">
        <ele>167</ele>
        <time>2020-03-08T20:02:22Z</time>
      </trkpt>
      <trkpt lat="48.93941" lon="7.8741">
        <ele>161</ele>
        <time>2020-03-08T20:02:12Z</time>
      </trkpt>
      <trkpt lat="48.9389" lon="7.87496">
        <ele>158</ele>
        <time>2020-03-08T20:01:58Z</time>
      </trkpt>
      <trkpt lat="48.93906" lon="7.87621">
        <ele>156</ele>
        <time>2020-03-08T20:01:50Z</time>
      </trkpt>
      <trkpt lat="48.93914" lon="7.87747">
        <ele>154</ele>
        <time>2020-03-08T20:01:45Z</time>
      </trkpt>
      <trkpt lat="48.93921" lon="7.87874">
        <ele>152</ele>
        <time>2020-03-08T20:01:38Z</time>
      </trkpt>
      <trkpt lat="48.93923" lon="7.87889">
        <ele>150.6</ele>
      </trkpt>
      <trkpt lat="48.93915" lon="7.87906">
        <ele>151.4</ele>
      </trkpt>
      <trkpt lat="48.93894" lon="7.87948">
        <ele>151.5</ele>
      </trkpt>
      <trkpt lat="48.93851" lon="7.88039">
        <ele>152.5</ele>
      </trkpt>
      <trkpt lat="48.93807" lon="7.88004">
        <ele>152.3</ele>
      </trkpt>
      <trkpt lat="48.9377" lon="7.87984">
        <ele>150.2</ele>
      </trkpt>
      <trkpt lat="48.93751" lon="7.87993">
        <ele>149.4</ele>
      </trkpt>
      <trkpt lat="48.93725" lon="7.88027">
        <ele>147.4</ele>
      </trkpt>
      <trkpt lat="48.93712" lon="7.88039">
        <ele>147.1</ele>
      </trkpt>
      <trkpt lat="48.93671" lon="7.88043">
        <ele>146.1</ele>
      </trkpt>
      <trkpt lat="48.93661" lon="7.88055">
        <ele>144.8</ele>
      </trkpt>
      <trkpt lat="48.93666" lon="7.88082">
        <ele>145</ele>
      </trkpt>
      <trkpt lat="48.93671" lon="7.88095">
        <ele>146.1</ele>
      </trkpt>
      <trkpt lat="48.93663" lon="7.88165">
        <ele>145.9</ele>
      </trkpt>
      <trkpt lat="48.93635" lon="7.88244">
        <ele>146.4</ele>
      </trkpt>
      <trkpt lat="48.93602" lon="7.88267">
        <ele>148</ele>
        <time>2020-03-08T20:00:29Z</time>
      </trkpt>
      <trkpt lat="48.93542" lon="7.8834">
        <ele>151</ele>
        <time>2020-03-08T20:00:12Z</time>
      </trkpt>
      <trkpt lat="48.93542" lon="7.8834">
        <ele>151</ele>
        <time>2020-03-08T20:00:12Z</time>
      </trkpt>
    </trkseg>
  </trk>
</gpx>